sensor_id;sensor_type;location;lat;lon;timestamp;pressure;altitude;pressure_sealevel;temperature;humidity
15694;BME280;7947;48.834;9.132;2024-02-28T00:01:00;98152.28;;;9.69;75.53
15694;BME280;7947;48.834;9.132;2024-02-28T00:04:04;98149.06;;;9.67;75.79
15694;BME280;7947;48.834;9.132;2024-02-28T00:07:07;98145.59;;;9.67;76.18
15694;BME280;7947;48.834;9.132;2024-02-28T00:10:09;98154.97;;;9.69;75.52
15694;BME280;7947;48.834;9.132;2024-02-28T00:13:12;98156.03;;;9.63;75.42
15694;BME280;7947;48.834;9.132;2024-02-28T00:16:18;98146.66;;;9.61;74.70
15694;BME280;7947;48.834;9.132;2024-02-28T00:19:21;98149.59;;;9.59;75.18
15694;BME280;7947;48.834;9.132;2024-02-28T00:22:26;98152.81;;;9.61;74.33
15694;BME280;7947;48.834;9.132;2024-02-28T00:25:29;98147.47;;;9.51;74.45
15694;BME280;7947;48.834;9.132;2024-02-28T00:28:32;98146.13;;;9.54;73.63
15694;BME280;7947;48.834;9.132;2024-02-28T00:31:36;98159.22;;;9.45;73.96
15694;BME280;7947;48.834;9.132;2024-02-28T00:34:39;98161.09;;;9.45;74.11
15694;BME280;7947;48.834;9.132;2024-02-28T00:37:42;98164.28;;;9.32;74.17
15694;BME280;7947;48.834;9.132;2024-02-28T00:40:45;98165.91;;;9.23;74.38
15694;BME280;7947;48.834;9.132;2024-02-28T00:43:47;98166.44;;;9.25;75.54
15694;BME280;7947;48.834;9.132;2024-02-28T00:46:52;98163.50;;;9.21;75.96
15694;BME280;7947;48.834;9.132;2024-02-28T00:49:55;98159.72;;;9.12;76.51
15694;BME280;7947;48.834;9.132;2024-02-28T00:52:58;98162.91;;;9.09;76.49
15694;BME280;7947;48.834;9.132;2024-02-28T00:56:01;98158.63;;;9.03;76.84
15694;BME280;7947;48.834;9.132;2024-02-28T00:59:03;98156.50;;;9.05;77.69
15694;BME280;7947;48.834;9.132;2024-02-28T01:02:09;98163.69;;;8.99;77.44
15694;BME280;7947;48.834;9.132;2024-02-28T01:05:12;98157.03;;;9.07;77.72
15694;BME280;7947;48.834;9.132;2024-02-28T01:08:15;98158.94;;;9.12;77.33
15694;BME280;7947;48.834;9.132;2024-02-28T01:11:18;98165.06;;;9.07;77.92
15694;BME280;7947;48.834;9.132;2024-02-28T01:14:21;98165.59;;;9.09;78.00
15694;BME280;7947;48.834;9.132;2024-02-28T01:17:25;98168.31;;;9.19;77.05
15694;BME280;7947;48.834;9.132;2024-02-28T01:20:28;98167.22;;;9.20;76.83
15694;BME280;7947;48.834;9.132;2024-02-28T01:23:31;98172.03;;;9.18;76.79
15694;BME280;7947;48.834;9.132;2024-02-28T01:26:34;98169.63;;;9.12;76.89
15694;BME280;7947;48.834;9.132;2024-02-28T01:29:37;98169.31;;;9.08;77.61
15694;BME280;7947;48.834;9.132;2024-02-28T01:32:41;98168.53;;;9.18;77.55
15694;BME280;7947;48.834;9.132;2024-02-28T01:35:44;98168.03;;;9.21;76.87
15694;BME280;7947;48.834;9.132;2024-02-28T01:38:47;98167.50;;;9.19;77.40
15694;BME280;7947;48.834;9.132;2024-02-28T01:41:51;98174.97;;;9.17;78.28
15694;BME280;7947;48.834;9.132;2024-02-28T01:44:54;98177.91;;;9.20;77.52
15694;BME280;7947;48.834;9.132;2024-02-28T01:47:58;98180.63;;;9.25;77.34
15694;BME280;7947;48.834;9.132;2024-02-28T01:51:02;98181.69;;;9.19;78.00
15694;BME280;7947;48.834;9.132;2024-02-28T01:54:06;98196.66;;;9.15;78.14
15694;BME280;7947;48.834;9.132;2024-02-28T01:57:08;98194.78;;;9.21;78.04
15694;BME280;7947;48.834;9.132;2024-02-28T02:00:13;98197.97;;;9.07;78.07
15694;BME280;7947;48.834;9.132;2024-02-28T02:03:19;98195.75;;;8.94;78.09
15694;BME280;7947;48.834;9.132;2024-02-28T02:06:22;98202.69;;;8.90;78.78
15694;BME280;7947;48.834;9.132;2024-02-28T02:09:25;98199.75;;;8.87;78.81
15694;BME280;7947;48.834;9.132;2024-02-28T02:12:28;98195.22;;;8.87;78.30
15694;BME280;7947;48.834;9.132;2024-02-28T02:15:34;98206.94;;;8.81;79.03
15694;BME280;7947;48.834;9.132;2024-02-28T02:18:38;98208.81;;;8.76;78.96
15694;BME280;7947;48.834;9.132;2024-02-28T02:21:46;98205.31;;;8.75;79.09
15694;BME280;7947;48.834;9.132;2024-02-28T02:24:52;98209.34;;;8.78;79.21
15694;BME280;7947;48.834;9.132;2024-02-28T02:27:55;98208.53;;;8.77;79.03
15694;BME280;7947;48.834;9.132;2024-02-28T02:30:58;98206.41;;;8.74;79.23
15694;BME280;7947;48.834;9.132;2024-02-28T02:34:00;98214.69;;;8.78;78.70
15694;BME280;7947;48.834;9.132;2024-02-28T02:37:03;98216.00;;;8.70;79.04
15694;BME280;7947;48.834;9.132;2024-02-28T02:40:12;98226.16;;;8.68;79.51
15694;BME280;7947;48.834;9.132;2024-02-28T02:43:14;98223.69;;;8.62;79.63
15694;BME280;7947;48.834;9.132;2024-02-28T02:46:17;98235.75;;;8.64;79.62
15694;BME280;7947;48.834;9.132;2024-02-28T02:49:21;98233.13;;;8.74;79.41
15694;BME280;7947;48.834;9.132;2024-02-28T02:52:24;98231.53;;;8.78;79.06
15694;BME280;7947;48.834;9.132;2024-02-28T02:55:28;98246.28;;;8.86;78.37
15694;BME280;7947;48.834;9.132;2024-02-28T02:58:30;98244.16;;;8.88;78.23
15694;BME280;7947;48.834;9.132;2024-02-28T03:01:33;98253.97;;;8.77;78.38
15694;BME280;7947;48.834;9.132;2024-02-28T03:04:36;98252.66;;;8.75;78.83
15694;BME280;7947;48.834;9.132;2024-02-28T03:07:38;98251.34;;;8.82;78.31
15694;BME280;7947;48.834;9.132;2024-02-28T03:10:43;98260.97;;;8.78;78.53
15694;BME280;7947;48.834;9.132;2024-02-28T03:13:45;98267.91;;;8.79;78.42
15694;BME280;7947;48.834;9.132;2024-02-28T03:16:48;98269.53;;;8.80;78.01
15694;BME280;7947;48.834;9.132;2024-02-28T03:19:51;98272.41;;;8.74;78.49
15694;BME280;7947;48.834;9.132;2024-02-28T03:22:53;98279.34;;;8.70;78.92
15694;BME280;7947;48.834;9.132;2024-02-28T03:25:57;98284.91;;;8.63;78.97
15694;BME280;7947;48.834;9.132;2024-02-28T03:29:00;98280.72;;;8.72;78.82
15694;BME280;7947;48.834;9.132;2024-02-28T03:32:03;98293.59;;;8.80;78.41
15694;BME280;7947;48.834;9.132;2024-02-28T03:35:07;98302.84;;;8.68;77.90
15694;BME280;7947;48.834;9.132;2024-02-28T03:38:10;98300.72;;;8.65;78.71
15694;BME280;7947;48.834;9.132;2024-02-28T03:41:14;98301.44;;;8.55;79.09
15694;BME280;7947;48.834;9.132;2024-02-28T03:44:17;98311.91;;;8.62;79.35
15694;BME280;7947;48.834;9.132;2024-02-28T03:47:19;98318.53;;;8.54;79.24
15694;BME280;7947;48.834;9.132;2024-02-28T03:50:22;98313.66;;;8.46;79.63
15694;BME280;7947;48.834;9.132;2024-02-28T03:53:25;98320.81;;;8.36;79.93
15694;BME280;7947;48.834;9.132;2024-02-28T03:56:29;98323.22;;;8.37;80.40
15694;BME280;7947;48.834;9.132;2024-02-28T03:59:32;98322.41;;;8.37;80.43
15694;BME280;7947;48.834;9.132;2024-02-28T04:02:34;98330.94;;;8.34;80.52
15694;BME280;7947;48.834;9.132;2024-02-28T04:05:37;98332.00;;;8.33;80.83
15694;BME280;7947;48.834;9.132;2024-02-28T04:08:40;98338.97;;;8.34;80.84
15694;BME280;7947;48.834;9.132;2024-02-28T04:11:44;98333.91;;;8.37;80.44
15694;BME280;7947;48.834;9.132;2024-02-28T04:14:47;98343.00;;;8.36;80.38
15694;BME280;7947;48.834;9.132;2024-02-28T04:17:50;98337.84;;;8.30;80.10
15694;BME280;7947;48.834;9.132;2024-02-28T04:20:53;98346.03;;;8.23;80.35
15694;BME280;7947;48.834;9.132;2024-02-28T04:23:55;98351.25;;;8.08;81.49
15694;BME280;7947;48.834;9.132;2024-02-28T04:26:59;98343.75;;;8.05;81.19
15694;BME280;7947;48.834;9.132;2024-02-28T04:30:05;98344.53;;;8.05;81.70
15694;BME280;7947;48.834;9.132;2024-02-28T04:33:08;98347.03;;;8.12;81.52
15694;BME280;7947;48.834;9.132;2024-02-28T04:36:11;98348.63;;;8.13;81.02
15694;BME280;7947;48.834;9.132;2024-02-28T04:39:14;98349.09;;;8.05;81.28
15694;BME280;7947;48.834;9.132;2024-02-28T04:42:18;98355.44;;;7.99;81.67
15694;BME280;7947;48.834;9.132;2024-02-28T04:45:21;98361.56;;;7.99;82.06
15694;BME280;7947;48.834;9.132;2024-02-28T04:48:23;98361.84;;;7.98;82.01
15694;BME280;7947;48.834;9.132;2024-02-28T04:51:26;98360.72;;;7.94;81.97
15694;BME280;7947;48.834;9.132;2024-02-28T04:54:29;98368.81;;;7.99;82.26
15694;BME280;7947;48.834;9.132;2024-02-28T04:57:33;98360.97;;;7.92;81.78
15694;BME280;7947;48.834;9.132;2024-02-28T05:00:36;98369.53;;;7.94;82.39
15694;BME280;7947;48.834;9.132;2024-02-28T05:03:39;98365.28;;;7.93;81.93
15694;BME280;7947;48.834;9.132;2024-02-28T05:06:41;98366.06;;;7.94;82.28
15694;BME280;7947;48.834;9.132;2024-02-28T05:09:44;98372.72;;;7.91;81.78
15694;BME280;7947;48.834;9.132;2024-02-28T05:12:48;98369.25;;;7.91;81.99
15694;BME280;7947;48.834;9.132;2024-02-28T05:15:55;98365.50;;;7.92;81.72
15694;BME280;7947;48.834;9.132;2024-02-28T05:19:46;98363.38;;;7.94;81.77
15694;BME280;7947;48.834;9.132;2024-02-28T05:24:34;98374.03;;;7.89;81.92
15694;BME280;7947;48.834;9.132;2024-02-28T05:28:21;98376.75;;;7.94;81.82
15694;BME280;7947;48.834;9.132;2024-02-28T05:32:30;98379.94;;;7.91;81.68
15694;BME280;7947;48.834;9.132;2024-02-28T05:36:51;98378.41;;;8.00;81.01
15694;BME280;7947;48.834;9.132;2024-02-28T05:41:12;98383.00;;;8.04;81.27
15694;BME280;7947;48.834;9.132;2024-02-28T05:45:36;98384.00;;;7.98;80.61
15694;BME280;7947;48.834;9.132;2024-02-28T05:48:47;98390.91;;;7.94;80.69
15694;BME280;7947;48.834;9.132;2024-02-28T05:52:02;98396.22;;;7.89;80.94
15694;BME280;7947;48.834;9.132;2024-02-28T06:31:04;98448.06;;;7.72;81.33
15694;BME280;7947;48.834;9.132;2024-02-28T06:38:45;98457.09;;;7.71;81.86
15694;BME280;7947;48.834;9.132;2024-02-28T06:42:17;98461.41;;;7.72;82.33
15694;BME280;7947;48.834;9.132;2024-02-28T06:46:36;98471.31;;;7.76;81.67
15694;BME280;7947;48.834;9.132;2024-02-28T06:50:38;98474.25;;;7.75;80.80
15694;BME280;7947;48.834;9.132;2024-02-28T06:54:43;98470.31;;;7.61;81.94
15694;BME280;7947;48.834;9.132;2024-02-28T07:57:20;98549.88;;;8.02;80.68
15694;BME280;7947;48.834;9.132;2024-02-28T08:01:25;98552.56;;;8.02;80.63
15694;BME280;7947;48.834;9.132;2024-02-28T08:19:18;98567.84;;;8.06;80.47
15694;BME280;7947;48.834;9.132;2024-02-28T08:23:38;98564.41;;;8.11;80.23
15694;BME280;7947;48.834;9.132;2024-02-28T08:32:09;98572.41;;;8.11;80.78
15694;BME280;7947;48.834;9.132;2024-02-28T10:18:20;98604.81;;;9.06;77.35
15694;BME280;7947;48.834;9.132;2024-02-28T10:22:52;98608.84;;;9.08;75.98
15694;BME280;7947;48.834;9.132;2024-02-28T10:27:40;98617.13;;;9.07;75.51
15694;BME280;7947;48.834;9.132;2024-02-28T12:05:09;98663.28;;;9.19;72.61
15694;BME280;7947;48.834;9.132;2024-02-28T12:09:25;98661.72;;;9.23;73.01
15694;BME280;7947;48.834;9.132;2024-02-28T13:43:56;98624.31;;;9.01;73.97
15694;BME280;7947;48.834;9.132;2024-02-28T13:53:01;98604.06;;;9.10;72.66
15694;BME280;7947;48.834;9.132;2024-02-28T14:06:25;98606.31;;;9.24;71.58
15694;BME280;7947;48.834;9.132;2024-02-28T14:10:40;98621.53;;;9.18;70.40
15694;BME280;7947;48.834;9.132;2024-02-28T14:15:30;98628.25;;;9.21;72.22
15694;BME280;7947;48.834;9.132;2024-02-28T14:20:06;98617.25;;;9.17;71.83
15694;BME280;7947;48.834;9.132;2024-02-28T14:23:53;98616.88;;;9.08;72.85
15694;BME280;7947;48.834;9.132;2024-02-28T14:27:01;98614.47;;;9.07;73.00
15694;BME280;7947;48.834;9.132;2024-02-28T14:30:10;98620.06;;;9.05;73.04
15694;BME280;7947;48.834;9.132;2024-02-28T14:33:19;98624.31;;;9.01;73.47
15694;BME280;7947;48.834;9.132;2024-02-28T14:36:27;98618.44;;;9.04;73.04
15694;BME280;7947;48.834;9.132;2024-02-28T14:39:36;98616.78;;;8.98;73.32
15694;BME280;7947;48.834;9.132;2024-02-28T14:42:54;98621.00;;;8.68;74.39
15694;BME280;7947;48.834;9.132;2024-02-28T14:46:05;98613.50;;;8.43;74.86
15694;BME280;7947;48.834;9.132;2024-02-28T14:49:13;98617.41;;;8.57;74.98
15694;BME280;7947;48.834;9.132;2024-02-28T14:52:21;98621.69;;;8.58;74.29
15694;BME280;7947;48.834;9.132;2024-02-28T14:55:31;98622.06;;;8.67;74.15
15694;BME280;7947;48.834;9.132;2024-02-28T14:58:38;98620.81;;;8.74;73.51
15694;BME280;7947;48.834;9.132;2024-02-28T15:01:48;98622.53;;;8.85;73.87
15694;BME280;7947;48.834;9.132;2024-02-28T15:04:56;98627.44;;;8.93;72.90
15694;BME280;7947;48.834;9.132;2024-02-28T15:08:09;98631.22;;;8.97;72.69
15694;BME280;7947;48.834;9.132;2024-02-28T15:11:19;98618.09;;;8.96;72.57
15694;BME280;7947;48.834;9.132;2024-02-28T15:14:26;98608.72;;;8.93;73.71
15694;BME280;7947;48.834;9.132;2024-02-28T15:17:29;98613.31;;;8.98;72.81
15694;BME280;7947;48.834;9.132;2024-02-28T15:20:32;98612.59;;;9.07;72.20
15694;BME280;7947;48.834;9.132;2024-02-28T15:23:34;98606.06;;;8.98;72.16
15694;BME280;7947;48.834;9.132;2024-02-28T15:26:39;98618.81;;;8.86;73.28
15694;BME280;7947;48.834;9.132;2024-02-28T15:29:47;98619.09;;;8.90;72.88
15694;BME280;7947;48.834;9.132;2024-02-28T15:32:50;98606.78;;;8.89;72.63
15694;BME280;7947;48.834;9.132;2024-02-28T15:35:54;98616.31;;;8.80;73.13
15694;BME280;7947;48.834;9.132;2024-02-28T15:38:57;98619.09;;;8.90;72.76
15694;BME280;7947;48.834;9.132;2024-02-28T15:42:01;98598.81;;;8.94;72.56
15694;BME280;7947;48.834;9.132;2024-02-28T15:45:05;98601.53;;;8.99;73.01
15694;BME280;7947;48.834;9.132;2024-02-28T15:48:09;98602.09;;;9.01;71.89
15694;BME280;7947;48.834;9.132;2024-02-28T15:51:12;98605.59;;;9.01;72.11
15694;BME280;7947;48.834;9.132;2024-02-28T15:54:15;98603.47;;;9.03;72.00
15694;BME280;7947;48.834;9.132;2024-02-28T15:57:19;98601.53;;;8.99;72.00
15694;BME280;7947;48.834;9.132;2024-02-28T16:00:22;98600.78;;;9.03;71.77
15694;BME280;7947;48.834;9.132;2024-02-28T16:03:25;98608.44;;;8.95;72.45
15694;BME280;7947;48.834;9.132;2024-02-28T16:06:28;98608.00;;;9.03;72.60
15694;BME280;7947;48.834;9.132;2024-02-28T16:09:40;98608.25;;;9.01;72.17
15694;BME280;7947;48.834;9.132;2024-02-28T16:12:46;98615.63;;;8.89;72.18
15694;BME280;7947;48.834;9.132;2024-02-28T16:15:49;98610.31;;;8.94;71.67
15694;BME280;7947;48.834;9.132;2024-02-28T16:18:52;98613.50;;;8.91;71.59
15694;BME280;7947;48.834;9.132;2024-02-28T16:21:55;98616.53;;;9.00;72.00
15694;BME280;7947;48.834;9.132;2024-02-28T16:24:58;98611.50;;;9.03;71.37
15694;BME280;7947;48.834;9.132;2024-02-28T16:28:02;98614.91;;;8.99;71.67
15694;BME280;7947;48.834;9.132;2024-02-28T16:31:06;98614.34;;;8.97;72.12
15694;BME280;7947;48.834;9.132;2024-02-28T16:34:09;98624.09;;;8.81;73.09
15694;BME280;7947;48.834;9.132;2024-02-28T16:37:12;98626.59;;;8.66;73.44
15694;BME280;7947;48.834;9.132;2024-02-28T16:40:16;98629.41;;;8.55;73.90
15694;BME280;7947;48.834;9.132;2024-02-28T16:43:20;98630.91;;;8.46;74.22
15694;BME280;7947;48.834;9.132;2024-02-28T16:46:23;98625.72;;;8.61;74.46
15694;BME280;7947;48.834;9.132;2024-02-28T16:49:26;98624.41;;;8.63;74.14
15694;BME280;7947;48.834;9.132;2024-02-28T16:52:28;98627.91;;;8.64;74.45
15694;BME280;7947;48.834;9.132;2024-02-28T16:55:31;98625.66;;;8.56;74.07
15694;BME280;7947;48.834;9.132;2024-02-28T16:58:35;98616.16;;;8.43;74.50
15694;BME280;7947;48.834;9.132;2024-02-28T17:01:42;98627.47;;;8.50;74.85
15694;BME280;7947;48.834;9.132;2024-02-28T17:04:48;98636.03;;;8.52;74.63
15694;BME280;7947;48.834;9.132;2024-02-28T17:07:52;98637.78;;;8.63;74.20
15694;BME280;7947;48.834;9.132;2024-02-28T17:10:55;98637.28;;;8.66;74.16
15694;BME280;7947;48.834;9.132;2024-02-28T17:13:59;98638.84;;;8.62;74.30
15694;BME280;7947;48.834;9.132;2024-02-28T17:17:02;98638.53;;;8.59;74.43
15694;BME280;7947;48.834;9.132;2024-02-28T17:20:05;98644.88;;;8.53;73.84
15694;BME280;7947;48.834;9.132;2024-02-28T17:23:09;98647.50;;;8.48;74.48
15694;BME280;7947;48.834;9.132;2024-02-28T17:26:11;98647.41;;;8.64;74.30
15694;BME280;7947;48.834;9.132;2024-02-28T17:29:16;98650.22;;;8.74;72.84
15694;BME280;7947;48.834;9.132;2024-02-28T17:32:18;98648.38;;;8.75;71.77
15694;BME280;7947;48.834;9.132;2024-02-28T17:35:21;98652.94;;;8.79;71.54
15694;BME280;7947;48.834;9.132;2024-02-28T17:38:24;98655.13;;;8.82;71.72
15694;BME280;7947;48.834;9.132;2024-02-28T17:41:27;98655.72;;;8.89;71.00
15694;BME280;7947;48.834;9.132;2024-02-28T17:44:32;98665.28;;;8.80;71.44
15694;BME280;7947;48.834;9.132;2024-02-28T17:47:35;98665.56;;;8.84;72.01
15694;BME280;7947;48.834;9.132;2024-02-28T17:50:38;98662.59;;;8.80;72.24
15694;BME280;7947;48.834;9.132;2024-02-28T17:53:41;98664.31;;;8.70;71.60
15694;BME280;7947;48.834;9.132;2024-02-28T17:56:44;98668.50;;;8.61;71.90
15694;BME280;7947;48.834;9.132;2024-02-28T17:59:49;98666.44;;;8.68;71.82
15694;BME280;7947;48.834;9.132;2024-02-28T18:02:52;98667.75;;;8.65;71.84
15694;BME280;7947;48.834;9.132;2024-02-28T18:05:55;98668.06;;;8.69;71.96
15694;BME280;7947;48.834;9.132;2024-02-28T18:08:58;98674.06;;;8.81;71.10
15694;BME280;7947;48.834;9.132;2024-02-28T18:12:01;98669.53;;;8.81;71.43
15694;BME280;7947;48.834;9.132;2024-02-28T18:15:06;98673.28;;;8.80;71.50
15694;BME280;7947;48.834;9.132;2024-02-28T18:18:09;98676.19;;;8.79;71.31
15694;BME280;7947;48.834;9.132;2024-02-28T18:21:12;98670.38;;;8.82;71.80
15694;BME280;7947;48.834;9.132;2024-02-28T18:24:15;98666.44;;;8.68;71.54
15694;BME280;7947;48.834;9.132;2024-02-28T18:27:19;98674.28;;;8.74;71.74
15694;BME280;7947;48.834;9.132;2024-02-28T18:30:23;98669.75;;;8.75;71.65
15694;BME280;7947;48.834;9.132;2024-02-28T18:33:27;98672.72;;;8.78;72.23
15694;BME280;7947;48.834;9.132;2024-02-28T18:36:30;98670.97;;;8.89;72.49
15694;BME280;7947;48.834;9.132;2024-02-28T18:39:33;98670.22;;;8.93;71.52
15694;BME280;7947;48.834;9.132;2024-02-28T18:42:36;98664.56;;;8.90;70.85
15694;BME280;7947;48.834;9.132;2024-02-28T18:45:40;98665.75;;;8.77;71.32
15694;BME280;7947;48.834;9.132;2024-02-28T18:48:43;98663.06;;;8.77;70.90
15694;BME280;7947;48.834;9.132;2024-02-28T18:51:47;98658.41;;;8.68;71.57
15694;BME280;7947;48.834;9.132;2024-02-28T18:54:51;98652.59;;;8.71;71.66
15694;BME280;7947;48.834;9.132;2024-02-28T18:57:54;98654.72;;;8.69;72.46
15694;BME280;7947;48.834;9.132;2024-02-28T19:00:58;98652.91;;;8.74;72.20
15694;BME280;7947;48.834;9.132;2024-02-28T19:04:01;98650.22;;;8.74;71.33
15694;BME280;7947;48.834;9.132;2024-02-28T19:07:04;98642.63;;;8.66;71.68
15694;BME280;7947;48.834;9.132;2024-02-28T19:10:08;98653.03;;;8.63;71.68
15694;BME280;7947;48.834;9.132;2024-02-28T19:13:11;98649.09;;;8.70;71.61
15694;BME280;7947;48.834;9.132;2024-02-28T19:16:15;98652.03;;;8.69;71.67
15694;BME280;7947;48.834;9.132;2024-02-28T19:19:20;98650.81;;;8.81;71.08
15694;BME280;7947;48.834;9.132;2024-02-28T19:22:23;98648.53;;;8.68;71.50
15694;BME280;7947;48.834;9.132;2024-02-28T19:25:26;98640.56;;;8.73;71.66
15694;BME280;7947;48.834;9.132;2024-02-28T19:28:28;98639.03;;;8.56;72.71
15694;BME280;7947;48.834;9.132;2024-02-28T19:31:33;98632.06;;;8.55;72.82
15694;BME280;7947;48.834;9.132;2024-02-28T19:34:36;98638.16;;;8.50;72.73
15694;BME280;7947;48.834;9.132;2024-02-28T19:37:39;98636.56;;;8.49;73.16
15694;BME280;7947;48.834;9.132;2024-02-28T19:40:44;98638.59;;;8.42;73.19
15694;BME280;7947;48.834;9.132;2024-02-28T19:43:51;98643.81;;;8.54;73.51
15694;BME280;7947;48.834;9.132;2024-02-28T19:46:55;98638.53;;;8.59;72.84
15694;BME280;7947;48.834;9.132;2024-02-28T19:49:58;98628.09;;;8.36;73.87
15694;BME280;7947;48.834;9.132;2024-02-28T19:53:01;98620.25;;;8.29;74.15
15694;BME280;7947;48.834;9.132;2024-02-28T19:56:05;98629.81;;;8.47;74.34
15694;BME280;7947;48.834;9.132;2024-02-28T19:59:08;98629.69;;;8.58;73.14
15694;BME280;7947;48.834;9.132;2024-02-28T20:02:17;98628.41;;;8.61;73.16
15694;BME280;7947;48.834;9.132;2024-02-28T20:05:23;98618.13;;;8.74;72.90
15694;BME280;7947;48.834;9.132;2024-02-28T20:08:26;98621.06;;;8.73;72.22
15694;BME280;7947;48.834;9.132;2024-02-28T20:11:28;98628.53;;;8.71;72.31
15694;BME280;7947;48.834;9.132;2024-02-28T20:14:31;98612.53;;;8.54;72.02
15694;BME280;7947;48.834;9.132;2024-02-28T20:17:36;98617.16;;;8.59;72.78
15694;BME280;7947;48.834;9.132;2024-02-28T20:20:39;98612.84;;;8.58;72.49
15694;BME280;7947;48.834;9.132;2024-02-28T20:23:44;98616.28;;;8.53;72.40
15694;BME280;7947;48.834;9.132;2024-02-28T20:26:47;98617.06;;;8.54;71.38
15694;BME280;7947;48.834;9.132;2024-02-28T20:29:49;98610.22;;;8.36;71.35
15694;BME280;7947;48.834;9.132;2024-02-28T20:32:53;98621.94;;;8.35;70.79
15694;BME280;7947;48.834;9.132;2024-02-28T20:35:56;98615.16;;;8.28;69.62
15694;BME280;7947;48.834;9.132;2024-02-28T20:38:59;98610.72;;;8.16;70.52
15694;BME280;7947;48.834;9.132;2024-02-28T20:42:02;98606.78;;;8.02;71.16
15694;BME280;7947;48.834;9.132;2024-02-28T20:45:07;98606.78;;;7.86;71.33
15694;BME280;7947;48.834;9.132;2024-02-28T20:48:11;98594.72;;;7.62;72.19
15694;BME280;7947;48.834;9.132;2024-02-28T20:51:14;98606.44;;;7.44;73.20
15694;BME280;7947;48.834;9.132;2024-02-28T20:54:17;98595.84;;;7.32;74.26
15694;BME280;7947;48.834;9.132;2024-02-28T20:57:20;98599.41;;;7.38;74.84
15694;BME280;7947;48.834;9.132;2024-02-28T21:00:24;98601.25;;;7.38;73.65
15694;BME280;7947;48.834;9.132;2024-02-28T21:03:28;98602.63;;;7.23;73.55
15694;BME280;7947;48.834;9.132;2024-02-28T21:06:31;98594.47;;;7.13;74.96
15694;BME280;7947;48.834;9.132;2024-02-28T21:09:34;98603.16;;;7.09;75.28
15694;BME280;7947;48.834;9.132;2024-02-28T21:12:37;98591.69;;;7.08;76.43
15694;BME280;7947;48.834;9.132;2024-02-28T21:15:40;98602.94;;;7.10;75.70
15694;BME280;7947;48.834;9.132;2024-02-28T21:18:44;98595.16;;;7.09;76.90
15694;BME280;7947;48.834;9.132;2024-02-28T21:21:47;98602.28;;;7.03;77.83
15694;BME280;7947;48.834;9.132;2024-02-28T21:24:50;98597.38;;;7.12;78.86
15694;BME280;7947;48.834;9.132;2024-02-28T21:27:53;98594.94;;;7.10;79.32
15694;BME280;7947;48.834;9.132;2024-02-28T21:30:56;98601.56;;;7.08;79.42
15694;BME280;7947;48.834;9.132;2024-02-28T21:34:01;98604.06;;;6.98;79.59
15694;BME280;7947;48.834;9.132;2024-02-28T21:37:04;98598.84;;;6.91;79.91
15694;BME280;7947;48.834;9.132;2024-02-28T21:40:08;98594.09;;;6.93;80.65
15694;BME280;7947;48.834;9.132;2024-02-28T21:43:11;98588.47;;;7.06;80.81
15694;BME280;7947;48.834;9.132;2024-02-28T21:46:14;98587.34;;;7.02;80.83
15694;BME280;7947;48.834;9.132;2024-02-28T21:49:18;98579.66;;;7.06;81.11
15694;BME280;7947;48.834;9.132;2024-02-28T21:52:21;98588.06;;;7.14;80.55
15694;BME280;7947;48.834;9.132;2024-02-28T21:55:24;98584.38;;;7.15;80.70
15694;BME280;7947;48.834;9.132;2024-02-28T21:58:27;98591.28;;;7.16;80.30
15694;BME280;7947;48.834;9.132;2024-02-28T22:01:30;98585.75;;;7.18;79.66
15694;BME280;7947;48.834;9.132;2024-02-28T22:04:34;98579.28;;;7.14;78.85
15694;BME280;7947;48.834;9.132;2024-02-28T22:07:36;98575.22;;;7.11;78.32
15694;BME280;7947;48.834;9.132;2024-02-28T22:10:39;98566.66;;;6.93;78.20
15694;BME280;7947;48.834;9.132;2024-02-28T22:13:42;98564.06;;;6.98;75.72
15694;BME280;7947;48.834;9.132;2024-02-28T22:16:45;98560.19;;;6.89;75.52
15694;BME280;7947;48.834;9.132;2024-02-28T22:19:49;98552.88;;;6.68;76.50
15694;BME280;7947;48.834;9.132;2024-02-28T22:22:51;98560.47;;;6.48;77.79
15694;BME280;7947;48.834;9.132;2024-02-28T22:25:57;98562.91;;;6.49;77.17
15694;BME280;7947;48.834;9.132;2024-02-28T22:29:00;98558.06;;;6.46;76.33
15694;BME280;7947;48.834;9.132;2024-02-28T22:32:03;98558.44;;;6.38;75.65
15694;BME280;7947;48.834;9.132;2024-02-28T22:35:08;98555.06;;;6.31;75.18
15694;BME280;7947;48.834;9.132;2024-02-28T22:38:10;98557.91;;;6.24;75.09
15694;BME280;7947;48.834;9.132;2024-02-28T22:41:14;98554.56;;;6.17;74.46
15694;BME280;7947;48.834;9.132;2024-02-28T22:44:17;98552.69;;;6.18;75.41
15694;BME280;7947;48.834;9.132;2024-02-28T22:47:19;98546.09;;;6.20;74.89
15694;BME280;7947;48.834;9.132;2024-02-28T22:50:23;98553.50;;;6.18;75.12
15694;BME280;7947;48.834;9.132;2024-02-28T22:53:26;98556.78;;;6.09;75.10
15694;BME280;7947;48.834;9.132;2024-02-28T22:56:29;98549.84;;;5.96;74.24
15694;BME280;7947;48.834;9.132;2024-02-28T22:59:32;98552.78;;;5.83;75.75
15694;BME280;7947;48.834;9.132;2024-02-28T23:02:34;98555.66;;;5.82;74.99
15694;BME280;7947;48.834;9.132;2024-02-28T23:05:39;98548.38;;;5.66;75.62
15694;BME280;7947;48.834;9.132;2024-02-28T23:08:42;98546.75;;;5.65;76.73
15694;BME280;7947;48.834;9.132;2024-02-28T23:11:44;98546.19;;;5.51;77.08
15694;BME280;7947;48.834;9.132;2024-02-28T23:14:47;98531.25;;;5.50;77.91
15694;BME280;7947;48.834;9.132;2024-02-28T23:17:50;98544.91;;;5.42;78.67
15694;BME280;7947;48.834;9.132;2024-02-28T23:20:55;98543.53;;;5.39;77.62
15694;BME280;7947;48.834;9.132;2024-02-28T23:23:59;98523.03;;;5.28;77.47
15694;BME280;7947;48.834;9.132;2024-02-28T23:27:02;98513.00;;;5.30;77.93
15694;BME280;7947;48.834;9.132;2024-02-28T23:30:06;98508.50;;;5.31;76.40
15694;BME280;7947;48.834;9.132;2024-02-28T23:33:10;98516.03;;;5.34;76.12
15694;BME280;7947;48.834;9.132;2024-02-28T23:36:14;98515.53;;;5.14;75.90
15694;BME280;7947;48.834;9.132;2024-02-28T23:39:17;98511.81;;;5.03;77.20
15694;BME280;7947;48.834;9.132;2024-02-28T23:42:20;98504.31;;;5.00;76.31
15694;BME280;7947;48.834;9.132;2024-02-28T23:45:23;98498.88;;;4.84;76.47
15694;BME280;7947;48.834;9.132;2024-02-28T23:48:32;98495.81;;;4.69;76.93
15694;BME280;7947;48.834;9.132;2024-02-28T23:51:40;98489.34;;;4.65;76.25
15694;BME280;7947;48.834;9.132;2024-02-28T23:54:49;98486.16;;;4.74;76.66
15694;BME280;7947;48.834;9.132;2024-02-28T23:57:57;98486.59;;;4.71;75.68
